This is the latest recevied weather packets stored in our database for station/object KD5UMO-1. If no packets are shown the sender has not sent any weather packets the latest 10 day(s).
| Time | Temp. | Humidity | Pressure | Rain* | Wind** | Luminosity | Snow |
|---|---|---|---|---|---|---|---|
| 1777147322 | 30.56° C | 65% | 1005.8 hPa | 0 mm | - | 708 W/m² | - |
| 1777147019 | 30.56° C | 63% | 1005.9 hPa | 0 mm | - | 530 W/m² | - |
| 1777146715 | 30.56° C | 63% | 1005.8 hPa | 0 mm | - | 839 W/m² | - |
| 1777146414 | 30.56° C | 64% | 1005.9 hPa | 0 mm | - | 857 W/m² | - |
| 1777146113 | 31.11° C | 64% | 1005.7 hPa | 0 mm | - | 834 W/m² | - |
| 1777145813 | 30.56° C | 65% | 1005.9 hPa | 0 mm | - | 750 W/m² | - |
| 1777145509 | 31.11° C | 62% | 1005.9 hPa | 0 mm | - | 705 W/m² | - |
| 1777145205 | 31.11° C | 64% | 1006.2 hPa | 0 mm | - | 396 W/m² | - |
| 1777144900 | 30.56° C | 65% | 1006.1 hPa | 0 mm | - | 859 W/m² | - |
| 1777144599 | 30.56° C | 64% | 1006.2 hPa | 0 mm | - | 404 W/m² | - |
| 1777144295 | 30.56° C | 65% | 1006.2 hPa | 0 mm | - | 489 W/m² | - |
| 1777143992 | 30.56° C | 65% | 1006.1 hPa | 0 mm | - | 468 W/m² | - |
| 1777143687 | 30° C | 65% | 1006.3 hPa | 0 mm | - | 775 W/m² | - |
| 1777143384 | 31.11° C | 63% | 1006.3 hPa | 0 mm | - | 1007 W/m² | - |
| 1777143080 | 30° C | 65% | 1006.4 hPa | 0 mm | - | 1038 W/m² | - |
| 1777142775 | 30° C | 65% | 1006.6 hPa | 0 mm | - | 553 W/m² | - |
| 1777142473 | 30° C | 65% | 1006.4 hPa | 0 mm | - | 1080 W/m² | - |
| 1777142172 | 30° C | 65% | 1006.7 hPa | 0 mm | - | 376 W/m² | - |
| 1777141869 | 30° C | 64% | 1006.5 hPa | 0 mm | - | 345 W/m² | - |
| 1777141566 | 30° C | 67% | 1006.6 hPa | 0 mm | - | 519 W/m² | - |
| 1777141265 | 30° C | 66% | 1006.7 hPa | 0 mm | - | 344 W/m² | - |
| 1777140961 | 29.44° C | 67% | 1007 hPa | 0 mm | - | 418 W/m² | - |
| 1777140658 | 29.44° C | 67% | 1007 hPa | 0 mm | - | 368 W/m² | - |
| 1777140354 | 30° C | 66% | 1007 hPa | 0 mm | - | 1054 W/m² | - |
| 1777140052 | 30° C | 67% | 1007.3 hPa | 0 mm | - | 867 W/m² | - |
* Rain latest hour (hover to see other rain measurements)
** Current wind speed in m/s (hover to see current wind gust speed)